createdAt,value
2022-10-14T00:01:23.820Z,9.10
2022-10-14T00:03:55.049Z,8.27
2022-10-14T00:06:26.265Z,8.70
2022-10-14T00:08:55.008Z,7.78
2022-10-14T00:11:25.256Z,7.55
2022-10-14T00:13:55.943Z,7.50
2022-10-14T00:16:27.215Z,9.43
2022-10-14T00:18:57.499Z,9.52
2022-10-14T00:21:26.317Z,8.55
2022-10-14T00:23:55.265Z,8.00
2022-10-14T00:26:25.930Z,9.07
2022-10-14T00:28:54.659Z,9.00
2022-10-14T00:31:23.096Z,8.32
2022-10-14T00:33:51.790Z,8.77
2022-10-14T00:36:24.726Z,9.23
2022-10-14T00:38:54.009Z,8.25
2022-10-14T00:41:24.794Z,8.48
2022-10-14T00:43:59.599Z,9.10
2022-10-14T00:46:30.236Z,9.05
2022-10-14T00:48:59.996Z,8.90
2022-10-14T00:51:31.418Z,8.60
2022-10-14T00:53:59.871Z,7.85
2022-10-14T00:56:31.554Z,7.78
2022-10-14T00:59:01.648Z,8.85
2022-10-14T01:01:29.973Z,11.48
2022-10-14T01:03:58.483Z,8.48
2022-10-14T01:06:42.506Z,7.50
2022-10-14T01:12:09.828Z,8.23
2022-10-14T01:14:47.206Z,7.70
2022-10-14T01:17:24.813Z,7.80
2022-10-14T01:20:29.731Z,8.00
2022-10-14T01:23:19.766Z,8.35
2022-10-14T01:26:01.975Z,7.78
2022-10-14T01:28:45.024Z,6.97
2022-10-14T01:31:19.506Z,7.60
2022-10-14T01:33:53.934Z,7.35
2022-10-14T01:36:27.310Z,7.18
2022-10-14T01:39:02.068Z,7.60
2022-10-14T01:41:34.565Z,7.55
2022-10-14T01:44:07.391Z,7.15
2022-10-14T01:46:39.623Z,7.00
2022-10-14T01:49:13.553Z,6.80
2022-10-14T01:51:50.476Z,6.30
2022-10-14T01:54:23.979Z,6.95
2022-10-14T01:56:54.746Z,7.22
2022-10-14T01:59:25.519Z,7.13
2022-10-14T02:01:55.360Z,7.93
2022-10-14T02:04:24.858Z,7.35
2022-10-14T02:07:01.633Z,7.88
2022-10-14T02:09:40.023Z,8.00
2022-10-14T02:12:19.071Z,8.48
2022-10-14T02:14:55.621Z,7.70
2022-10-14T02:17:32.598Z,7.65
2022-10-14T02:20:09.143Z,8.80
2022-10-14T02:22:40.872Z,15.25
2022-10-14T02:25:14.127Z,7.28
2022-10-14T02:27:45.984Z,7.40
2022-10-14T02:30:16.578Z,7.38
2022-10-14T02:32:48.192Z,6.63
2022-10-14T02:35:19.615Z,7.55
2022-10-14T02:37:50.169Z,7.38
2022-10-14T02:40:24.255Z,5.85
2022-10-14T02:42:52.777Z,6.60
2022-10-14T02:45:22.150Z,6.00
2022-10-14T02:47:51.918Z,5.68
2022-10-14T02:50:20.270Z,5.72
2022-10-14T02:52:49.194Z,6.13
2022-10-14T02:55:17.903Z,4.93
2022-10-14T02:57:46.635Z,4.97
2022-10-14T03:00:16.129Z,4.57
2022-10-14T03:02:44.500Z,5.15
2022-10-14T03:05:14.421Z,4.57
2022-10-14T03:07:42.722Z,5.38
2022-10-14T03:10:11.179Z,4.55
2022-10-14T03:12:39.627Z,4.60
2022-10-14T03:15:09.523Z,4.75
2022-10-14T03:17:38.117Z,5.55
2022-10-14T03:20:07.371Z,4.35
2022-10-14T03:22:37.167Z,3.53
2022-10-14T03:25:05.780Z,3.70
2022-10-14T03:27:34.149Z,3.85
2022-10-14T03:30:02.883Z,3.28
2022-10-14T03:32:31.375Z,3.67
2022-10-14T03:34:59.778Z,3.83
2022-10-14T03:37:28.127Z,3.90
2022-10-14T03:39:57.939Z,3.65
2022-10-14T03:42:26.544Z,4.15
2022-10-14T03:44:54.963Z,3.78
2022-10-14T03:47:23.608Z,4.50
2022-10-14T03:49:52.641Z,3.97
2022-10-14T03:52:21.505Z,4.35
2022-10-14T03:54:50.007Z,4.45
2022-10-14T03:57:19.819Z,4.45
2022-10-14T03:59:48.178Z,4.38
2022-10-14T04:02:16.500Z,4.13
2022-10-14T04:04:45.342Z,4.30
2022-10-14T04:07:13.683Z,3.42
2022-10-14T04:09:42.071Z,3.80
2022-10-14T04:12:10.415Z,4.10
2022-10-14T04:14:40.551Z,3.83
2022-10-14T04:17:08.931Z,3.78
2022-10-14T04:19:37.323Z,4.18
2022-10-14T04:22:05.983Z,3.97
2022-10-14T04:24:34.699Z,3.58
2022-10-14T04:27:03.119Z,3.50
2022-10-14T04:29:31.482Z,3.30
2022-10-14T04:32:01.529Z,3.83
2022-10-14T04:34:29.855Z,3.55
2022-10-14T04:36:58.404Z,3.70
2022-10-14T04:39:26.879Z,3.90
2022-10-14T04:41:55.138Z,3.05
2022-10-14T04:44:23.874Z,3.25
2022-10-14T04:46:52.263Z,3.17
2022-10-14T04:49:22.761Z,3.33
2022-10-14T04:51:51.061Z,3.00
2022-10-14T04:54:19.567Z,3.38
2022-10-14T04:56:48.031Z,2.40
2022-10-14T04:59:16.545Z,2.20
2022-10-14T05:01:44.915Z,2.38
2022-10-14T05:04:13.405Z,2.22
2022-10-14T05:06:43.536Z,2.10
2022-10-14T05:09:11.903Z,2.13
2022-10-14T05:11:40.280Z,2.42
2022-10-14T05:14:08.686Z,2.20
2022-10-14T05:16:36.979Z,2.17
2022-10-14T05:19:05.520Z,2.15
2022-10-14T05:21:33.995Z,2.17
2022-10-14T05:24:04.215Z,1.98
2022-10-14T05:26:32.787Z,2.15
2022-10-14T05:29:01.250Z,2.30
2022-10-14T05:31:29.559Z,2.17
2022-10-14T05:33:57.951Z,2.22
2022-10-14T05:36:26.459Z,2.67
2022-10-14T05:38:58.786Z,2.70
2022-10-14T05:41:28.655Z,2.65
2022-10-14T05:43:57.093Z,2.55
2022-10-14T05:46:25.511Z,2.47
2022-10-14T05:48:53.823Z,1.92
2022-10-14T05:51:23.093Z,2.28
2022-10-14T05:53:51.420Z,2.20
2022-10-14T05:56:20.391Z,1.80
2022-10-14T05:58:50.199Z,2.40
2022-10-14T06:01:18.519Z,1.80
2022-10-14T06:03:46.881Z,1.95
2022-10-14T06:06:15.879Z,1.90
2022-10-14T06:08:45.167Z,1.98
2022-10-14T06:11:14.030Z,1.65
2022-10-14T06:13:43.454Z,1.70
2022-10-14T06:16:15.089Z,2.03
2022-10-14T06:18:43.471Z,1.70
2022-10-14T06:21:12.969Z,1.80
2022-10-14T06:23:41.303Z,2.15
2022-10-14T06:26:10.334Z,2.40
2022-10-14T06:28:39.326Z,2.50
2022-10-14T06:31:08.435Z,3.13
2022-10-14T06:33:38.276Z,3.55
2022-10-14T06:36:08.312Z,3.13
2022-10-14T06:38:36.659Z,2.80
2022-10-14T06:41:05.063Z,2.30
2022-10-14T06:43:35.418Z,2.20
2022-10-14T06:46:04.926Z,2.40
2022-10-14T06:48:33.468Z,2.10
2022-10-14T06:51:04.122Z,1.88
2022-10-14T06:53:32.651Z,1.90
2022-10-14T06:56:02.348Z,2.22
2022-10-14T06:58:31.355Z,2.92
2022-10-14T07:01:03.672Z,2.10
2022-10-14T07:03:32.514Z,1.90
2022-10-14T07:06:03.986Z,2.38
2022-10-14T07:08:32.474Z,2.83
2022-10-14T07:11:01.196Z,2.53
2022-10-14T07:13:29.695Z,2.85
2022-10-14T07:15:58.115Z,3.03
2022-10-14T07:18:26.913Z,2.40
2022-10-14T07:20:55.199Z,2.50
2022-10-14T07:23:25.055Z,2.50
2022-10-14T07:25:53.732Z,2.72
2022-10-14T07:28:22.099Z,2.10
2022-10-14T07:30:59.430Z,2.95
2022-10-14T07:33:28.245Z,2.20
2022-10-14T07:35:56.935Z,2.33
2022-10-14T07:38:26.674Z,2.15
2022-10-14T07:41:00.452Z,3.13
2022-10-14T07:46:01.874Z,3.45
2022-10-14T07:48:33.020Z,3.20
2022-10-14T07:51:13.517Z,3.30
2022-10-14T07:53:43.345Z,4.18
2022-10-14T07:56:11.857Z,3.30
2022-10-14T07:58:44.320Z,3.45
2022-10-14T08:01:15.018Z,3.00
2022-10-14T08:03:44.000Z,3.10
2022-10-14T08:06:12.982Z,4.05
2022-10-14T08:08:44.155Z,8.82
2022-10-14T08:11:14.827Z,4.00
2022-10-14T08:13:46.185Z,4.25
2022-10-14T08:16:16.959Z,4.50
2022-10-14T08:18:46.279Z,5.18
2022-10-14T08:21:15.902Z,5.07
2022-10-14T08:23:45.813Z,4.78
2022-10-14T08:26:21.707Z,4.70
2022-10-14T08:28:50.786Z,4.60
2022-10-14T08:31:19.459Z,4.43
2022-10-14T08:33:48.243Z,4.40
2022-10-14T08:36:17.398Z,4.53
2022-10-14T08:38:47.667Z,4.15
2022-10-14T08:41:32.219Z,3.88
2022-10-14T08:44:12.702Z,3.28
2022-10-14T08:46:49.405Z,3.22
2022-10-14T08:49:27.270Z,2.28
2022-10-14T08:52:00.794Z,2.47
2022-10-14T08:54:38.225Z,1.90
2022-10-14T08:57:07.938Z,1.85
2022-10-14T08:59:41.853Z,1.75
2022-10-14T09:02:22.999Z,5.13
2022-10-14T09:04:52.116Z,2.33
2022-10-14T09:07:22.562Z,2.20
2022-10-14T09:09:56.004Z,1.70
2022-10-14T09:12:29.739Z,2.00
2022-10-14T09:17:37.992Z,2.58
2022-10-14T09:20:18.156Z,3.13
2022-10-14T09:22:48.541Z,3.13
2022-10-14T09:25:19.723Z,3.38
2022-10-14T09:27:48.495Z,3.25
2022-10-14T09:30:19.360Z,2.90
2022-10-14T09:32:51.614Z,2.45
2022-10-14T09:35:26.520Z,2.17
2022-10-14T09:37:55.624Z,2.10
2022-10-14T09:40:31.155Z,2.00
2022-10-14T09:43:04.395Z,1.83
2022-10-14T09:45:49.468Z,1.30
2022-10-14T09:48:22.039Z,1.80
2022-10-14T09:50:53.111Z,1.80
2022-10-14T09:53:29.235Z,1.80
2022-10-14T09:56:01.209Z,1.58
2022-10-14T09:58:34.273Z,1.75
2022-10-14T10:01:03.711Z,1.27
2022-10-14T10:03:33.986Z,1.77
2022-10-14T10:06:06.020Z,1.98
2022-10-14T10:08:36.199Z,2.42
2022-10-14T10:11:09.442Z,2.10
2022-10-14T10:13:41.750Z,2.67
2022-10-14T10:16:21.027Z,1.80
2022-10-14T10:18:49.864Z,2.40
2022-10-14T10:21:21.386Z,2.83
2022-10-14T10:23:55.520Z,2.60
2022-10-14T10:26:31.799Z,3.67
2022-10-14T10:29:02.719Z,3.40
2022-10-14T10:31:53.418Z,3.70
2022-10-14T10:34:54.318Z,3.28
2022-10-14T10:37:31.133Z,3.42
2022-10-14T10:40:31.892Z,3.40
2022-10-14T10:43:21.807Z,4.00
2022-10-14T10:46:02.388Z,2.80
2022-10-14T10:48:43.055Z,3.03
2022-10-14T10:51:15.767Z,3.92
2022-10-14T10:54:03.221Z,3.80
2022-10-14T10:56:38.915Z,3.92
2022-10-14T10:59:35.357Z,4.00
2022-10-14T11:02:28.709Z,4.60
2022-10-14T11:05:03.918Z,4.57
2022-10-14T11:07:59.925Z,4.10
2022-10-14T11:10:52.557Z,3.67
2022-10-14T11:13:29.360Z,3.40
2022-10-14T11:16:08.339Z,3.78
2022-10-14T11:18:46.456Z,3.97
2022-10-14T11:21:25.963Z,3.50
2022-10-14T11:24:04.693Z,3.60
2022-10-14T11:26:53.492Z,3.85
2022-10-14T11:29:47.397Z,3.97
2022-10-14T11:32:24.063Z,4.32
2022-10-14T11:35:06.235Z,3.78
2022-10-14T11:37:45.144Z,3.40
2022-10-14T11:40:22.567Z,4.00
2022-10-14T11:43:07.214Z,3.55
2022-10-14T11:45:51.852Z,4.03
2022-10-14T11:48:39.451Z,4.25
2022-10-14T11:51:14.486Z,4.18
2022-10-14T11:53:50.765Z,4.03
2022-10-14T11:56:30.659Z,4.13
2022-10-14T11:59:21.743Z,3.85
2022-10-14T12:01:53.940Z,4.30
2022-10-14T12:04:29.900Z,3.88
2022-10-14T12:07:05.828Z,4.00
2022-10-14T12:09:40.756Z,3.60
2022-10-14T12:12:11.835Z,5.97
2022-10-14T12:14:44.194Z,5.53
2022-10-14T12:17:20.765Z,3.70
2022-10-14T12:19:52.597Z,3.42
2022-10-14T12:22:24.529Z,3.50
2022-10-14T12:24:55.724Z,3.85
2022-10-14T12:27:26.992Z,3.75
2022-10-14T12:29:57.622Z,4.18
2022-10-14T12:32:27.564Z,4.22
2022-10-14T12:34:58.415Z,4.28
2022-10-14T12:37:51.617Z,4.50
2022-10-14T12:40:31.262Z,4.32
2022-10-14T12:43:04.142Z,4.45
2022-10-14T12:45:34.732Z,3.83
2022-10-14T12:48:08.566Z,4.20
2022-10-14T12:50:40.368Z,4.20
2022-10-14T12:53:17.932Z,4.40
2022-10-14T12:55:51.767Z,4.03
2022-10-14T12:58:30.461Z,4.40
2022-10-14T13:01:03.588Z,4.57
2022-10-14T13:03:36.126Z,4.07
2022-10-14T13:06:32.618Z,4.90
2022-10-14T13:09:42.024Z,4.68
2022-10-14T13:12:42.247Z,7.07
2022-10-14T13:15:59.780Z,5.03
2022-10-14T13:18:51.009Z,5.00
2022-10-14T13:21:48.867Z,4.53
2022-10-14T13:24:24.399Z,5.13
2022-10-14T13:27:10.630Z,4.75
2022-10-14T13:30:04.332Z,4.22
2022-10-14T13:32:41.263Z,4.90
2022-10-14T13:35:19.959Z,4.82
2022-10-14T13:37:57.957Z,4.90
2022-10-14T13:40:31.844Z,4.93
2022-10-14T13:43:02.129Z,4.40
2022-10-14T13:45:38.375Z,5.20
2022-10-14T13:48:14.014Z,4.47
2022-10-14T13:50:44.351Z,3.90
2022-10-14T13:53:17.880Z,3.95
2022-10-14T13:55:54.427Z,4.32
2022-10-14T13:58:24.324Z,5.13
2022-10-14T14:01:01.742Z,7.40
2022-10-14T14:03:34.035Z,5.57
2022-10-14T14:06:03.464Z,5.38
2022-10-14T14:08:40.810Z,4.70
2022-10-14T14:11:19.043Z,4.30
2022-10-14T14:13:57.556Z,5.05
2022-10-14T14:16:34.034Z,4.60
2022-10-14T14:19:08.363Z,5.00
2022-10-14T14:21:37.473Z,4.55
2022-10-14T14:24:17.407Z,4.65
2022-10-14T14:26:47.930Z,5.43
2022-10-14T14:29:19.270Z,5.25
2022-10-14T14:34:39.842Z,5.70
2022-10-14T14:39:58.177Z,4.93
2022-10-14T14:42:29.733Z,5.03
2022-10-14T14:45:02.792Z,4.97
2022-10-14T14:47:33.384Z,5.65
2022-10-14T14:50:31.398Z,5.18
2022-10-14T14:52:52.999Z,5.55
2022-10-14T14:55:43.607Z,4.82
2022-10-14T14:58:24.387Z,4.55
2022-10-14T15:00:55.095Z,5.25
2022-10-14T15:03:25.344Z,4.10
2022-10-14T15:05:58.686Z,5.30
2022-10-14T15:08:30.211Z,7.03
2022-10-14T15:11:00.628Z,5.15
2022-10-14T15:13:45.651Z,3.85
2022-10-14T15:16:14.356Z,4.20
2022-10-14T15:18:43.819Z,4.25
2022-10-14T15:21:20.308Z,3.80
2022-10-14T15:24:03.519Z,4.47
2022-10-14T15:26:34.980Z,4.70
2022-10-14T15:29:16.025Z,5.50
2022-10-14T15:31:46.391Z,5.18
2022-10-14T15:34:20.924Z,5.07
2022-10-14T15:36:52.393Z,4.45
2022-10-14T15:39:21.795Z,5.13
2022-10-14T15:41:50.234Z,5.32
2022-10-14T15:44:20.348Z,5.50
2022-10-14T15:47:06.299Z,5.88
2022-10-14T15:49:39.283Z,5.22
2022-10-14T15:52:07.571Z,6.70
2022-10-14T15:54:36.543Z,5.63
2022-10-14T15:57:05.899Z,5.32
2022-10-14T15:59:36.078Z,6.30
2022-10-14T16:02:05.556Z,5.78
2022-10-14T16:04:37.264Z,4.68
2022-10-14T16:07:08.267Z,4.47
2022-10-14T16:09:36.918Z,5.10
2022-10-14T16:12:06.637Z,5.18
2022-10-14T16:14:36.665Z,4.35
2022-10-14T16:17:05.350Z,4.43
2022-10-14T16:19:35.067Z,4.75
2022-10-14T16:22:03.639Z,4.10
2022-10-14T16:24:31.894Z,4.53
2022-10-14T16:27:00.387Z,3.97
2022-10-14T16:29:28.708Z,3.80
2022-10-14T16:31:59.402Z,3.70
2022-10-14T16:34:27.771Z,6.60
2022-10-14T16:36:56.154Z,3.50
2022-10-14T16:39:24.928Z,2.97
2022-10-14T16:41:53.555Z,3.30
2022-10-14T16:44:28.148Z,3.08
2022-10-14T16:47:18.891Z,3.53
2022-10-14T16:49:49.357Z,3.22
2022-10-14T16:52:18.455Z,2.15
2022-10-14T16:54:47.023Z,2.60
2022-10-14T16:57:16.153Z,2.30
2022-10-14T16:59:44.931Z,2.75
2022-10-14T17:02:17.937Z,2.50
2022-10-14T17:04:48.390Z,2.90
2022-10-14T17:07:17.669Z,2.30
2022-10-14T17:09:46.246Z,2.30
2022-10-14T17:12:14.982Z,2.60
2022-10-14T17:14:43.307Z,1.70
2022-10-14T17:17:13.267Z,1.73
2022-10-14T17:19:43.449Z,1.70
2022-10-14T17:22:12.439Z,1.42
2022-10-14T17:24:41.059Z,2.22
2022-10-14T17:27:09.605Z,2.22
2022-10-14T17:29:38.345Z,2.03
2022-10-14T17:32:06.917Z,2.35
2022-10-14T17:34:35.886Z,2.10
2022-10-14T17:39:37.673Z,2.58
2022-10-14T17:42:06.263Z,3.63
2022-10-14T17:44:34.661Z,3.13
2022-10-14T17:47:03.434Z,3.08
2022-10-14T17:49:32.675Z,1.90
2022-10-14T17:52:02.654Z,2.47
2022-10-14T17:54:32.424Z,3.70
2022-10-14T17:57:00.929Z,2.00
2022-10-14T17:59:29.349Z,2.10
2022-10-14T18:02:02.650Z,1.92
2022-10-14T18:04:33.405Z,1.60
2022-10-14T18:07:02.735Z,1.50
2022-10-14T18:09:34.224Z,1.60
2022-10-14T18:12:08.689Z,1.80
2022-10-14T18:14:38.203Z,0.98
2022-10-14T18:17:06.756Z,0.80
2022-10-14T18:19:35.587Z,0.85
2022-10-14T18:22:04.295Z,0.60
2022-10-14T18:24:38.664Z,0.90
2022-10-14T18:27:07.818Z,0.65
2022-10-14T18:29:36.502Z,1.02
2022-10-14T18:32:04.931Z,0.82
2022-10-14T18:34:33.864Z,0.68
2022-10-14T18:37:02.591Z,0.70
2022-10-14T18:39:32.120Z,0.80
2022-10-14T18:42:02.247Z,0.60
2022-10-14T18:44:30.977Z,0.68
2022-10-14T18:46:59.841Z,0.70
2022-10-14T18:49:29.646Z,0.60
2022-10-14T18:51:59.421Z,0.70
2022-10-14T18:54:30.547Z,0.80
2022-10-14T18:57:00.417Z,0.30
2022-10-14T18:59:32.480Z,0.30
2022-10-14T19:02:02.616Z,1.83
2022-10-14T19:04:32.320Z,0.57
2022-10-14T19:07:02.310Z,0.50
2022-10-14T19:09:35.813Z,0.30
2022-10-14T19:12:26.983Z,0.60
2022-10-14T19:14:58.436Z,0.70
2022-10-14T19:17:28.542Z,1.00
2022-10-14T19:20:01.207Z,1.38
2022-10-14T19:22:32.069Z,1.42
2022-10-14T19:25:01.773Z,1.58
2022-10-14T19:27:30.916Z,2.28
2022-10-14T19:30:02.034Z,2.50
2022-10-14T19:32:31.806Z,2.92
2022-10-14T19:35:02.377Z,3.10
2022-10-14T19:37:31.828Z,3.20
2022-10-14T19:40:02.490Z,2.53
2022-10-14T19:42:32.697Z,4.10
2022-10-14T19:45:03.946Z,3.40
2022-10-14T19:47:34.144Z,2.85
2022-10-14T19:50:03.789Z,4.15
2022-10-14T19:52:33.430Z,3.30
2022-10-14T19:55:03.385Z,3.70
2022-10-14T19:57:33.251Z,4.88
2022-10-14T20:00:04.728Z,7.00
2022-10-14T20:02:34.652Z,4.90
2022-10-14T20:05:04.784Z,4.43
2022-10-14T20:07:34.380Z,4.18
2022-10-14T20:10:04.133Z,4.07
2022-10-14T20:12:34.708Z,4.05
2022-10-14T20:15:06.331Z,3.80
2022-10-14T20:17:36.072Z,3.20
2022-10-14T20:20:06.220Z,3.25
2022-10-14T20:22:36.064Z,3.78
2022-10-14T20:25:06.038Z,2.90
2022-10-14T20:27:35.828Z,3.03
2022-10-14T20:30:07.780Z,2.30
2022-10-14T20:32:37.657Z,2.78
2022-10-14T20:35:11.541Z,2.22
2022-10-14T20:37:44.716Z,2.10
2022-10-14T20:40:15.617Z,2.45
2022-10-14T20:42:45.504Z,2.22
2022-10-14T20:45:15.319Z,2.72
2022-10-14T20:47:43.903Z,2.42
2022-10-14T20:50:12.364Z,2.10
2022-10-14T20:52:40.822Z,2.00
2022-10-14T20:55:09.685Z,2.28
2022-10-14T20:57:38.074Z,2.53
2022-10-14T21:00:07.404Z,2.35
2022-10-14T21:02:37.247Z,3.03
2022-10-14T21:05:06.422Z,2.22
2022-10-14T21:07:35.455Z,3.55
2022-10-14T21:10:04.172Z,5.80
2022-10-14T21:12:32.556Z,3.15
2022-10-14T21:15:00.944Z,3.00
2022-10-14T21:17:29.402Z,2.85
2022-10-14T21:19:59.359Z,2.95
2022-10-14T21:22:55.343Z,3.00
2022-10-14T21:25:23.751Z,2.80
2022-10-14T21:27:52.089Z,3.03
2022-10-14T21:30:20.465Z,2.25
2022-10-14T21:32:48.842Z,2.72
2022-10-14T21:35:18.595Z,2.80
2022-10-14T21:37:46.971Z,2.42
2022-10-14T21:40:15.716Z,2.50
2022-10-14T21:42:44.127Z,2.17
2022-10-14T21:45:12.610Z,2.15
2022-10-14T21:47:41.033Z,1.48
2022-10-14T21:50:10.093Z,1.50
2022-10-14T21:52:39.921Z,1.40
2022-10-14T21:55:08.978Z,1.20
2022-10-14T21:57:37.799Z,1.50
2022-10-14T22:00:08.939Z,1.00
2022-10-14T22:02:37.611Z,1.00
2022-10-14T22:05:06.683Z,1.00
2022-10-14T22:07:35.053Z,1.00
2022-10-14T22:10:25.636Z,0.77
2022-10-14T22:12:53.967Z,0.73
2022-10-14T22:15:22.763Z,0.50
2022-10-14T22:17:51.344Z,0.73
2022-10-14T22:20:20.189Z,0.68
2022-10-14T22:22:48.555Z,0.60
2022-10-14T22:25:18.640Z,0.63
2022-10-14T22:27:47.352Z,0.80
2022-10-14T22:30:16.731Z,0.50
2022-10-14T22:32:45.419Z,0.47
2022-10-14T22:35:13.708Z,0.82
2022-10-14T22:37:42.260Z,0.40
2022-10-14T22:40:12.004Z,0.60
2022-10-14T22:42:42.463Z,0.40
2022-10-14T22:45:12.688Z,0.50
2022-10-14T22:47:41.032Z,0.63
2022-10-14T22:50:10.051Z,0.70
2022-10-14T22:52:39.129Z,0.85
2022-10-14T22:55:09.141Z,0.70
2022-10-14T22:57:37.549Z,0.60
2022-10-14T23:00:08.499Z,0.70
2022-10-14T23:02:37.009Z,0.60
2022-10-14T23:05:06.012Z,0.80
2022-10-14T23:07:34.720Z,0.60
2022-10-14T23:10:03.143Z,0.70
2022-10-14T23:12:31.593Z,0.60
2022-10-14T23:15:00.092Z,0.77
2022-10-14T23:17:31.061Z,0.52
2022-10-14T23:19:59.367Z,0.40
2022-10-14T23:22:28.008Z,0.47
2022-10-14T23:24:56.395Z,0.52
2022-10-14T23:27:24.838Z,0.60
2022-10-14T23:29:53.259Z,0.50
2022-10-14T23:32:21.630Z,0.40
2022-10-14T23:34:51.595Z,0.50
2022-10-14T23:37:20.334Z,0.52
2022-10-14T23:39:49.461Z,0.60
2022-10-14T23:42:17.875Z,0.47
2022-10-14T23:44:46.311Z,0.40
2022-10-14T23:47:14.797Z,0.40
2022-10-14T23:49:43.182Z,0.50
2022-10-14T23:52:12.956Z,0.40
2022-10-14T23:54:41.303Z,0.40
2022-10-14T23:57:09.755Z,0.40
2022-10-14T23:59:38.218Z,0.30
